sensor_id;sensor_type;location;lat;lon;timestamp;P1;durP1;ratioP1;P2;durP2;ratioP2
36257;SDS011;22294;52.044;4.582;2022-11-14T00:02:17;23.27;;;15.65;;
36257;SDS011;22294;52.044;4.582;2022-11-14T00:04:45;23.30;;;15.50;;
36257;SDS011;22294;52.044;4.582;2022-11-14T00:07:12;19.63;;;14.97;;
36257;SDS011;22294;52.044;4.582;2022-11-14T00:09:37;19.50;;;14.50;;
36257;SDS011;22294;52.044;4.582;2022-11-14T00:12:04;19.10;;;14.23;;
36257;SDS011;22294;52.044;4.582;2022-11-14T00:14:30;20.30;;;15.05;;
36257;SDS011;22294;52.044;4.582;2022-11-14T00:16:55;18.50;;;13.40;;
36257;SDS011;22294;52.044;4.582;2022-11-14T00:19:21;19.60;;;14.65;;
36257;SDS011;22294;52.044;4.582;2022-11-14T00:21:46;18.08;;;14.68;;
36257;SDS011;22294;52.044;4.582;2022-11-14T00:24:11;19.77;;;14.40;;
36257;SDS011;22294;52.044;4.582;2022-11-14T00:26:37;16.90;;;13.90;;
36257;SDS011;22294;52.044;4.582;2022-11-14T00:29:02;16.95;;;14.00;;
36257;SDS011;22294;52.044;4.582;2022-11-14T00:31:27;21.10;;;14.73;;
36257;SDS011;22294;52.044;4.582;2022-11-14T00:33:53;22.02;;;14.85;;
36257;SDS011;22294;52.044;4.582;2022-11-14T00:36:18;19.02;;;14.40;;
36257;SDS011;22294;52.044;4.582;2022-11-14T00:38:43;20.48;;;14.68;;
36257;SDS011;22294;52.044;4.582;2022-11-14T00:41:08;19.70;;;14.63;;
36257;SDS011;22294;52.044;4.582;2022-11-14T00:43:34;19.52;;;13.70;;
36257;SDS011;22294;52.044;4.582;2022-11-14T00:45:59;18.95;;;14.13;;
36257;SDS011;22294;52.044;4.582;2022-11-14T00:48:24;20.20;;;14.48;;
36257;SDS011;22294;52.044;4.582;2022-11-14T00:50:49;18.60;;;14.43;;
36257;SDS011;22294;52.044;4.582;2022-11-14T00:53:15;19.02;;;14.05;;
36257;SDS011;22294;52.044;4.582;2022-11-14T00:55:40;19.25;;;14.30;;
36257;SDS011;22294;52.044;4.582;2022-11-14T00:58:06;20.77;;;14.95;;
36257;SDS011;22294;52.044;4.582;2022-11-14T01:00:32;21.52;;;14.52;;
36257;SDS011;22294;52.044;4.582;2022-11-14T01:02:57;20.60;;;14.30;;
36257;SDS011;22294;52.044;4.582;2022-11-14T01:05:23;17.75;;;14.35;;
36257;SDS011;22294;52.044;4.582;2022-11-14T01:07:49;19.83;;;14.07;;
36257;SDS011;22294;52.044;4.582;2022-11-14T01:10:15;17.92;;;13.57;;
36257;SDS011;22294;52.044;4.582;2022-11-14T01:12:41;21.10;;;14.20;;
36257;SDS011;22294;52.044;4.582;2022-11-14T01:15:06;17.30;;;13.63;;
36257;SDS011;22294;52.044;4.582;2022-11-14T01:17:33;17.65;;;13.38;;
36257;SDS011;22294;52.044;4.582;2022-11-14T01:19:59;19.95;;;13.98;;
36257;SDS011;22294;52.044;4.582;2022-11-14T01:22:24;19.92;;;13.95;;
36257;SDS011;22294;52.044;4.582;2022-11-14T01:24:49;21.27;;;14.70;;
36257;SDS011;22294;52.044;4.582;2022-11-14T01:27:15;18.60;;;13.30;;
36257;SDS011;22294;52.044;4.582;2022-11-14T01:29:40;17.67;;;13.63;;
36257;SDS011;22294;52.044;4.582;2022-11-14T01:32:05;21.63;;;13.98;;
36257;SDS011;22294;52.044;4.582;2022-11-14T01:34:31;18.38;;;13.88;;
36257;SDS011;22294;52.044;4.582;2022-11-14T01:36:56;16.65;;;12.80;;
36257;SDS011;22294;52.044;4.582;2022-11-14T01:39:21;18.30;;;13.45;;
36257;SDS011;22294;52.044;4.582;2022-11-14T01:41:47;18.80;;;13.95;;
36257;SDS011;22294;52.044;4.582;2022-11-14T01:44:14;19.60;;;13.52;;
36257;SDS011;22294;52.044;4.582;2022-11-14T01:46:41;19.98;;;14.02;;
36257;SDS011;22294;52.044;4.582;2022-11-14T01:49:14;19.73;;;14.10;;
36257;SDS011;22294;52.044;4.582;2022-11-14T01:51:46;17.23;;;13.55;;
36257;SDS011;22294;52.044;4.582;2022-11-14T01:54:15;19.10;;;13.40;;
36257;SDS011;22294;52.044;4.582;2022-11-14T01:56:47;19.83;;;13.70;;
36257;SDS011;22294;52.044;4.582;2022-11-14T01:59:18;19.05;;;14.38;;
36257;SDS011;22294;52.044;4.582;2022-11-14T02:01:48;20.77;;;13.98;;
36257;SDS011;22294;52.044;4.582;2022-11-14T02:04:20;20.27;;;14.35;;
36257;SDS011;22294;52.044;4.582;2022-11-14T02:06:50;19.00;;;13.65;;
36257;SDS011;22294;52.044;4.582;2022-11-14T02:09:19;18.27;;;13.73;;
36257;SDS011;22294;52.044;4.582;2022-11-14T02:11:45;18.42;;;13.55;;
36257;SDS011;22294;52.044;4.582;2022-11-14T02:14:10;20.48;;;14.00;;
36257;SDS011;22294;52.044;4.582;2022-11-14T02:16:39;17.67;;;13.77;;
36257;SDS011;22294;52.044;4.582;2022-11-14T02:19:06;18.30;;;13.73;;
36257;SDS011;22294;52.044;4.582;2022-11-14T02:21:33;20.15;;;13.85;;
36257;SDS011;22294;52.044;4.582;2022-11-14T02:23:58;20.33;;;14.10;;
36257;SDS011;22294;52.044;4.582;2022-11-14T02:26:23;20.52;;;14.20;;
36257;SDS011;22294;52.044;4.582;2022-11-14T02:28:49;19.75;;;13.90;;
36257;SDS011;22294;52.044;4.582;2022-11-14T02:31:15;20.13;;;13.70;;
36257;SDS011;22294;52.044;4.582;2022-11-14T02:33:41;19.67;;;13.43;;
36257;SDS011;22294;52.044;4.582;2022-11-14T02:36:06;19.17;;;13.20;;
36257;SDS011;22294;52.044;4.582;2022-11-14T02:38:33;21.33;;;14.60;;
36257;SDS011;22294;52.044;4.582;2022-11-14T02:40:59;21.35;;;13.25;;
36257;SDS011;22294;52.044;4.582;2022-11-14T02:43:25;21.08;;;14.13;;
36257;SDS011;22294;52.044;4.582;2022-11-14T02:45:50;19.38;;;13.80;;
36257;SDS011;22294;52.044;4.582;2022-11-14T02:48:17;17.92;;;13.82;;
36257;SDS011;22294;52.044;4.582;2022-11-14T02:50:42;18.23;;;14.90;;
36257;SDS011;22294;52.044;4.582;2022-11-14T02:53:08;19.27;;;13.25;;
36257;SDS011;22294;52.044;4.582;2022-11-14T02:55:33;20.25;;;14.40;;
36257;SDS011;22294;52.044;4.582;2022-11-14T02:57:58;18.05;;;13.27;;
36257;SDS011;22294;52.044;4.582;2022-11-14T03:00:25;20.90;;;14.27;;
36257;SDS011;22294;52.044;4.582;2022-11-14T03:02:54;21.80;;;13.70;;
36257;SDS011;22294;52.044;4.582;2022-11-14T03:05:19;22.42;;;14.10;;
36257;SDS011;22294;52.044;4.582;2022-11-14T03:07:45;20.23;;;14.27;;
36257;SDS011;22294;52.044;4.582;2022-11-14T03:10:10;20.73;;;14.43;;
36257;SDS011;22294;52.044;4.582;2022-11-14T03:12:37;22.08;;;15.10;;
36257;SDS011;22294;52.044;4.582;2022-11-14T03:15:04;20.35;;;13.73;;
36257;SDS011;22294;52.044;4.582;2022-11-14T03:17:32;23.95;;;15.05;;
36257;SDS011;22294;52.044;4.582;2022-11-14T03:19:58;22.88;;;14.90;;
36257;SDS011;22294;52.044;4.582;2022-11-14T03:22:23;22.95;;;15.57;;
36257;SDS011;22294;52.044;4.582;2022-11-14T03:24:48;21.58;;;14.95;;
36257;SDS011;22294;52.044;4.582;2022-11-14T03:27:14;24.10;;;15.57;;
36257;SDS011;22294;52.044;4.582;2022-11-14T03:29:39;21.42;;;15.38;;
36257;SDS011;22294;52.044;4.582;2022-11-14T03:32:04;22.02;;;15.60;;
36257;SDS011;22294;52.044;4.582;2022-11-14T03:34:30;21.08;;;15.48;;
36257;SDS011;22294;52.044;4.582;2022-11-14T03:36:55;25.77;;;16.98;;
36257;SDS011;22294;52.044;4.582;2022-11-14T03:39:20;23.88;;;16.23;;
36257;SDS011;22294;52.044;4.582;2022-11-14T03:41:45;20.08;;;15.52;;
36257;SDS011;22294;52.044;4.582;2022-11-14T03:44:11;26.70;;;17.13;;
36257;SDS011;22294;52.044;4.582;2022-11-14T03:46:36;25.40;;;17.90;;
36257;SDS011;22294;52.044;4.582;2022-11-14T03:49:01;25.10;;;16.52;;
36257;SDS011;22294;52.044;4.582;2022-11-14T03:51:27;24.58;;;16.75;;
36257;SDS011;22294;52.044;4.582;2022-11-14T03:53:52;26.00;;;17.17;;
36257;SDS011;22294;52.044;4.582;2022-11-14T03:56:17;23.65;;;16.15;;
36257;SDS011;22294;52.044;4.582;2022-11-14T03:58:43;27.30;;;16.92;;
36257;SDS011;22294;52.044;4.582;2022-11-14T04:01:08;22.92;;;16.13;;
36257;SDS011;22294;52.044;4.582;2022-11-14T04:03:33;22.60;;;14.50;;
36257;SDS011;22294;52.044;4.582;2022-11-14T04:05:58;28.40;;;16.55;;
36257;SDS011;22294;52.044;4.582;2022-11-14T04:08:24;24.83;;;16.42;;
36257;SDS011;22294;52.044;4.582;2022-11-14T04:10:49;24.48;;;15.93;;
36257;SDS011;22294;52.044;4.582;2022-11-14T04:13:14;27.00;;;16.23;;
36257;SDS011;22294;52.044;4.582;2022-11-14T04:15:40;28.85;;;17.08;;
36257;SDS011;22294;52.044;4.582;2022-11-14T04:18:05;24.33;;;16.42;;
36257;SDS011;22294;52.044;4.582;2022-11-14T04:20:30;25.60;;;15.73;;
36257;SDS011;22294;52.044;4.582;2022-11-14T04:22:56;26.70;;;17.00;;
36257;SDS011;22294;52.044;4.582;2022-11-14T04:25:21;27.25;;;16.92;;
36257;SDS011;22294;52.044;4.582;2022-11-14T04:27:46;27.23;;;17.17;;
36257;SDS011;22294;52.044;4.582;2022-11-14T04:30:11;28.05;;;16.92;;
36257;SDS011;22294;52.044;4.582;2022-11-14T04:32:37;28.10;;;17.35;;
36257;SDS011;22294;52.044;4.582;2022-11-14T04:35:02;25.67;;;17.30;;
36257;SDS011;22294;52.044;4.582;2022-11-14T04:37:27;25.58;;;16.52;;
36257;SDS011;22294;52.044;4.582;2022-11-14T04:39:53;31.20;;;18.60;;
36257;SDS011;22294;52.044;4.582;2022-11-14T04:42:22;32.07;;;19.20;;
36257;SDS011;22294;52.044;4.582;2022-11-14T04:44:48;31.45;;;18.60;;
36257;SDS011;22294;52.044;4.582;2022-11-14T04:47:13;33.97;;;19.63;;
36257;SDS011;22294;52.044;4.582;2022-11-14T04:49:38;34.50;;;19.70;;
36257;SDS011;22294;52.044;4.582;2022-11-14T04:52:04;31.70;;;18.90;;
36257;SDS011;22294;52.044;4.582;2022-11-14T04:54:29;32.17;;;20.10;;
36257;SDS011;22294;52.044;4.582;2022-11-14T04:56:54;28.77;;;18.73;;
36257;SDS011;22294;52.044;4.582;2022-11-14T04:59:20;34.30;;;20.55;;
36257;SDS011;22294;52.044;4.582;2022-11-14T05:01:45;34.20;;;19.55;;
36257;SDS011;22294;52.044;4.582;2022-11-14T05:04:10;37.67;;;20.45;;
36257;SDS011;22294;52.044;4.582;2022-11-14T05:06:35;33.30;;;20.08;;
36257;SDS011;22294;52.044;4.582;2022-11-14T05:09:01;33.28;;;19.80;;
36257;SDS011;22294;52.044;4.582;2022-11-14T05:11:26;34.92;;;19.98;;
36257;SDS011;22294;52.044;4.582;2022-11-14T05:13:54;38.65;;;21.45;;
36257;SDS011;22294;52.044;4.582;2022-11-14T05:16:19;35.75;;;20.17;;
36257;SDS011;22294;52.044;4.582;2022-11-14T05:18:45;35.40;;;21.60;;
36257;SDS011;22294;52.044;4.582;2022-11-14T05:21:13;33.47;;;19.92;;
36257;SDS011;22294;52.044;4.582;2022-11-14T05:23:39;38.22;;;21.50;;
36257;SDS011;22294;52.044;4.582;2022-11-14T05:26:06;37.58;;;21.35;;
36257;SDS011;22294;52.044;4.582;2022-11-14T05:28:33;38.88;;;21.35;;
36257;SDS011;22294;52.044;4.582;2022-11-14T05:30:59;38.38;;;20.83;;
36257;SDS011;22294;52.044;4.582;2022-11-14T05:33:28;40.03;;;21.55;;
36257;SDS011;22294;52.044;4.582;2022-11-14T05:35:54;38.80;;;22.58;;
36257;SDS011;22294;52.044;4.582;2022-11-14T05:38:19;41.63;;;22.52;;
36257;SDS011;22294;52.044;4.582;2022-11-14T05:40:44;41.05;;;22.48;;
36257;SDS011;22294;52.044;4.582;2022-11-14T05:43:09;39.40;;;22.48;;
36257;SDS011;22294;52.044;4.582;2022-11-14T05:45:35;41.03;;;21.92;;
36257;SDS011;22294;52.044;4.582;2022-11-14T05:48:00;39.50;;;22.67;;
36257;SDS011;22294;52.044;4.582;2022-11-14T05:50:25;37.60;;;22.83;;
36257;SDS011;22294;52.044;4.582;2022-11-14T05:52:50;40.58;;;22.58;;
36257;SDS011;22294;52.044;4.582;2022-11-14T05:55:16;39.08;;;22.50;;
36257;SDS011;22294;52.044;4.582;2022-11-14T05:57:41;38.40;;;20.73;;
36257;SDS011;22294;52.044;4.582;2022-11-14T06:00:06;42.03;;;22.48;;
36257;SDS011;22294;52.044;4.582;2022-11-14T06:02:33;42.72;;;23.10;;
36257;SDS011;22294;52.044;4.582;2022-11-14T06:04:59;35.75;;;20.98;;
36257;SDS011;22294;52.044;4.582;2022-11-14T06:07:24;37.60;;;22.15;;
36257;SDS011;22294;52.044;4.582;2022-11-14T06:09:49;37.80;;;21.02;;
36257;SDS011;22294;52.044;4.582;2022-11-14T06:12:14;39.72;;;21.50;;
36257;SDS011;22294;52.044;4.582;2022-11-14T06:14:40;40.10;;;22.65;;
36257;SDS011;22294;52.044;4.582;2022-11-14T06:17:05;41.03;;;22.13;;
36257;SDS011;22294;52.044;4.582;2022-11-14T06:19:30;39.03;;;22.13;;
36257;SDS011;22294;52.044;4.582;2022-11-14T06:21:56;38.03;;;21.88;;
36257;SDS011;22294;52.044;4.582;2022-11-14T06:24:21;39.42;;;22.35;;
36257;SDS011;22294;52.044;4.582;2022-11-14T06:26:46;39.35;;;22.02;;
36257;SDS011;22294;52.044;4.582;2022-11-14T06:29:11;42.30;;;22.10;;
36257;SDS011;22294;52.044;4.582;2022-11-14T06:31:37;39.58;;;22.63;;
36257;SDS011;22294;52.044;4.582;2022-11-14T06:34:03;40.10;;;22.15;;
36257;SDS011;22294;52.044;4.582;2022-11-14T06:36:29;39.80;;;22.10;;
36257;SDS011;22294;52.044;4.582;2022-11-14T06:38:54;38.40;;;22.35;;
36257;SDS011;22294;52.044;4.582;2022-11-14T06:41:20;37.70;;;21.90;;
36257;SDS011;22294;52.044;4.582;2022-11-14T06:43:47;39.03;;;21.65;;
36257;SDS011;22294;52.044;4.582;2022-11-14T06:46:15;41.97;;;22.98;;
36257;SDS011;22294;52.044;4.582;2022-11-14T06:48:42;38.67;;;21.98;;
36257;SDS011;22294;52.044;4.582;2022-11-14T06:51:09;41.15;;;23.15;;
36257;SDS011;22294;52.044;4.582;2022-11-14T06:53:35;40.10;;;21.58;;
36257;SDS011;22294;52.044;4.582;2022-11-14T06:56:11;42.10;;;21.77;;
36257;SDS011;22294;52.044;4.582;2022-11-14T06:58:39;38.50;;;21.63;;
36257;SDS011;22294;52.044;4.582;2022-11-14T07:01:16;37.70;;;21.75;;
36257;SDS011;22294;52.044;4.582;2022-11-14T07:03:43;44.05;;;22.40;;
36257;SDS011;22294;52.044;4.582;2022-11-14T07:06:11;39.20;;;22.90;;
36257;SDS011;22294;52.044;4.582;2022-11-14T07:08:42;40.25;;;22.58;;
36257;SDS011;22294;52.044;4.582;2022-11-14T07:11:09;41.75;;;22.48;;
36257;SDS011;22294;52.044;4.582;2022-11-14T07:13:36;45.42;;;24.05;;
36257;SDS011;22294;52.044;4.582;2022-11-14T07:16:02;40.00;;;22.02;;
36257;SDS011;22294;52.044;4.582;2022-11-14T07:18:31;42.40;;;22.10;;
36257;SDS011;22294;52.044;4.582;2022-11-14T07:21:01;42.13;;;22.23;;
36257;SDS011;22294;52.044;4.582;2022-11-14T07:23:29;40.20;;;22.80;;
36257;SDS011;22294;52.044;4.582;2022-11-14T07:25:58;41.08;;;22.45;;
36257;SDS011;22294;52.044;4.582;2022-11-14T07:28:25;37.15;;;21.17;;
36257;SDS011;22294;52.044;4.582;2022-11-14T07:30:51;41.38;;;22.33;;
36257;SDS011;22294;52.044;4.582;2022-11-14T07:33:17;45.42;;;22.13;;
36257;SDS011;22294;52.044;4.582;2022-11-14T07:35:42;41.40;;;22.15;;
36257;SDS011;22294;52.044;4.582;2022-11-14T07:38:07;38.85;;;21.42;;
36257;SDS011;22294;52.044;4.582;2022-11-14T07:40:33;40.63;;;22.25;;
36257;SDS011;22294;52.044;4.582;2022-11-14T07:42:58;36.45;;;21.02;;
36257;SDS011;22294;52.044;4.582;2022-11-14T07:45:25;40.10;;;21.85;;
36257;SDS011;22294;52.044;4.582;2022-11-14T07:47:55;40.45;;;21.65;;
36257;SDS011;22294;52.044;4.582;2022-11-14T07:50:21;40.33;;;20.88;;
36257;SDS011;22294;52.044;4.582;2022-11-14T07:52:50;43.00;;;21.77;;
36257;SDS011;22294;52.044;4.582;2022-11-14T07:55:16;37.60;;;20.58;;
36257;SDS011;22294;52.044;4.582;2022-11-14T07:57:42;35.85;;;19.83;;
36257;SDS011;22294;52.044;4.582;2022-11-14T08:00:08;36.15;;;20.60;;
36257;SDS011;22294;52.044;4.582;2022-11-14T08:02:34;38.00;;;21.80;;
36257;SDS011;22294;52.044;4.582;2022-11-14T08:05:00;35.55;;;20.10;;
36257;SDS011;22294;52.044;4.582;2022-11-14T08:07:25;33.20;;;18.75;;
36257;SDS011;22294;52.044;4.582;2022-11-14T08:09:50;31.63;;;18.65;;
36257;SDS011;22294;52.044;4.582;2022-11-14T08:12:16;32.25;;;18.60;;
36257;SDS011;22294;52.044;4.582;2022-11-14T08:14:41;34.33;;;19.25;;
36257;SDS011;22294;52.044;4.582;2022-11-14T08:17:06;32.72;;;18.92;;
36257;SDS011;22294;52.044;4.582;2022-11-14T08:19:31;35.15;;;19.05;;
36257;SDS011;22294;52.044;4.582;2022-11-14T08:21:57;33.67;;;19.60;;
36257;SDS011;22294;52.044;4.582;2022-11-14T08:24:22;32.78;;;19.85;;
36257;SDS011;22294;52.044;4.582;2022-11-14T08:26:47;32.00;;;18.77;;
36257;SDS011;22294;52.044;4.582;2022-11-14T08:29:12;30.85;;;19.17;;
36257;SDS011;22294;52.044;4.582;2022-11-14T08:31:38;32.47;;;19.50;;
36257;SDS011;22294;52.044;4.582;2022-11-14T08:34:03;29.15;;;18.38;;
36257;SDS011;22294;52.044;4.582;2022-11-14T08:36:28;26.08;;;17.00;;
36257;SDS011;22294;52.044;4.582;2022-11-14T08:38:54;35.08;;;17.70;;
36257;SDS011;22294;52.044;4.582;2022-11-14T08:41:19;30.83;;;18.00;;
36257;SDS011;22294;52.044;4.582;2022-11-14T08:43:44;25.67;;;16.90;;
36257;SDS011;22294;52.044;4.582;2022-11-14T08:46:10;26.58;;;15.45;;
36257;SDS011;22294;52.044;4.582;2022-11-14T08:48:35;24.63;;;14.90;;
36257;SDS011;22294;52.044;4.582;2022-11-14T08:51:01;24.55;;;16.15;;
36257;SDS011;22294;52.044;4.582;2022-11-14T08:53:28;26.38;;;16.08;;
36257;SDS011;22294;52.044;4.582;2022-11-14T08:55:54;25.95;;;15.90;;
36257;SDS011;22294;52.044;4.582;2022-11-14T08:58:20;23.88;;;15.98;;
36257;SDS011;22294;52.044;4.582;2022-11-14T09:00:45;26.98;;;16.35;;
36257;SDS011;22294;52.044;4.582;2022-11-14T09:03:10;25.25;;;15.55;;
36257;SDS011;22294;52.044;4.582;2022-11-14T09:05:38;29.17;;;16.50;;
36257;SDS011;22294;52.044;4.582;2022-11-14T09:08:03;26.00;;;15.48;;
36257;SDS011;22294;52.044;4.582;2022-11-14T09:10:29;23.40;;;15.65;;
36257;SDS011;22294;52.044;4.582;2022-11-14T09:12:55;26.50;;;15.63;;
36257;SDS011;22294;52.044;4.582;2022-11-14T09:15:21;23.55;;;15.80;;
36257;SDS011;22294;52.044;4.582;2022-11-14T09:17:46;27.85;;;15.73;;
36257;SDS011;22294;52.044;4.582;2022-11-14T09:20:12;24.30;;;16.02;;
36257;SDS011;22294;52.044;4.582;2022-11-14T09:22:38;25.40;;;15.05;;
36257;SDS011;22294;52.044;4.582;2022-11-14T09:25:03;28.30;;;15.68;;
36257;SDS011;22294;52.044;4.582;2022-11-14T09:27:29;23.58;;;14.88;;
36257;SDS011;22294;52.044;4.582;2022-11-14T09:29:54;24.42;;;15.02;;
36257;SDS011;22294;52.044;4.582;2022-11-14T09:32:19;27.20;;;16.42;;
36257;SDS011;22294;52.044;4.582;2022-11-14T09:34:44;25.73;;;15.68;;
36257;SDS011;22294;52.044;4.582;2022-11-14T09:37:10;23.27;;;15.02;;
36257;SDS011;22294;52.044;4.582;2022-11-14T09:39:35;23.77;;;14.93;;
36257;SDS011;22294;52.044;4.582;2022-11-14T09:44:44;24.63;;;15.32;;
36257;SDS011;22294;52.044;4.582;2022-11-14T09:47:20;22.17;;;14.98;;
36257;SDS011;22294;52.044;4.582;2022-11-14T09:49:49;24.95;;;15.48;;
36257;SDS011;22294;52.044;4.582;2022-11-14T09:52:53;19.85;;;13.02;;
36257;SDS011;22294;52.044;4.582;2022-11-14T09:55:26;21.52;;;15.07;;
36257;SDS011;22294;52.044;4.582;2022-11-14T09:57:53;24.52;;;15.15;;
36257;SDS011;22294;52.044;4.582;2022-11-14T10:00:20;20.95;;;14.27;;
36257;SDS011;22294;52.044;4.582;2022-11-14T10:08:37;25.45;;;13.80;;
36257;SDS011;22294;52.044;4.582;2022-11-14T10:11:41;23.08;;;13.82;;
36257;SDS011;22294;52.044;4.582;2022-11-14T10:19:37;22.33;;;14.98;;
36257;SDS011;22294;52.044;4.582;2022-11-14T10:22:22;24.02;;;14.32;;
36257;SDS011;22294;52.044;4.582;2022-11-14T10:25:02;21.92;;;13.45;;
36257;SDS011;22294;52.044;4.582;2022-11-14T10:30:50;19.20;;;14.25;;
36257;SDS011;22294;52.044;4.582;2022-11-14T10:36:28;21.67;;;14.68;;
36257;SDS011;22294;52.044;4.582;2022-11-14T10:39:08;20.65;;;13.85;;
36257;SDS011;22294;52.044;4.582;2022-11-14T10:41:40;20.65;;;13.63;;
36257;SDS011;22294;52.044;4.582;2022-11-14T10:44:09;19.90;;;12.52;;
36257;SDS011;22294;52.044;4.582;2022-11-14T10:46:40;24.02;;;14.52;;
36257;SDS011;22294;52.044;4.582;2022-11-14T10:49:21;21.30;;;13.80;;
36257;SDS011;22294;52.044;4.582;2022-11-14T10:51:58;23.75;;;15.23;;
36257;SDS011;22294;52.044;4.582;2022-11-14T10:56:56;22.92;;;14.10;;
36257;SDS011;22294;52.044;4.582;2022-11-14T10:59:22;16.90;;;12.90;;
36257;SDS011;22294;52.044;4.582;2022-11-14T11:04:35;21.95;;;13.02;;
36257;SDS011;22294;52.044;4.582;2022-11-14T11:09:34;19.92;;;12.82;;
36257;SDS011;22294;52.044;4.582;2022-11-14T11:12:23;20.92;;;13.55;;
36257;SDS011;22294;52.044;4.582;2022-11-14T11:15:23;20.02;;;13.27;;
36257;SDS011;22294;52.044;4.582;2022-11-14T11:18:04;19.83;;;12.98;;
36257;SDS011;22294;52.044;4.582;2022-11-14T11:20:46;16.90;;;11.95;;
36257;SDS011;22294;52.044;4.582;2022-11-14T11:23:27;21.75;;;12.68;;
36257;SDS011;22294;52.044;4.582;2022-11-14T11:28:41;18.80;;;13.15;;
36257;SDS011;22294;52.044;4.582;2022-11-14T11:31:07;20.83;;;13.82;;
36257;SDS011;22294;52.044;4.582;2022-11-14T11:33:35;20.55;;;13.57;;
36257;SDS011;22294;52.044;4.582;2022-11-14T11:36:03;19.50;;;12.70;;
36257;SDS011;22294;52.044;4.582;2022-11-14T11:38:31;19.73;;;13.23;;
36257;SDS011;22294;52.044;4.582;2022-11-14T11:43:52;19.55;;;13.18;;
36257;SDS011;22294;52.044;4.582;2022-11-14T11:46:29;17.77;;;13.32;;
36257;SDS011;22294;52.044;4.582;2022-11-14T11:49:29;18.85;;;13.40;;
36257;SDS011;22294;52.044;4.582;2022-11-14T11:52:03;17.40;;;13.13;;
36257;SDS011;22294;52.044;4.582;2022-11-14T11:57:15;19.83;;;12.90;;
36257;SDS011;22294;52.044;4.582;2022-11-14T11:59:44;16.63;;;13.00;;
36257;SDS011;22294;52.044;4.582;2022-11-14T12:02:23;19.45;;;13.52;;
36257;SDS011;22294;52.044;4.582;2022-11-14T12:04:50;17.50;;;12.90;;
36257;SDS011;22294;52.044;4.582;2022-11-14T12:10:14;18.70;;;12.77;;
36257;SDS011;22294;52.044;4.582;2022-11-14T12:24:05;17.73;;;12.73;;
36257;SDS011;22294;52.044;4.582;2022-11-14T12:31:47;22.40;;;14.35;;
36257;SDS011;22294;52.044;4.582;2022-11-14T12:37:16;20.75;;;14.13;;
36257;SDS011;22294;52.044;4.582;2022-11-14T12:42:49;21.40;;;14.13;;
36257;SDS011;22294;52.044;4.582;2022-11-14T12:50:47;20.55;;;14.50;;
36257;SDS011;22294;52.044;4.582;2022-11-14T12:58:48;19.65;;;13.35;;
36257;SDS011;22294;52.044;4.582;2022-11-14T13:04:03;20.67;;;14.07;;
36257;SDS011;22294;52.044;4.582;2022-11-14T13:11:56;18.83;;;14.20;;
36257;SDS011;22294;52.044;4.582;2022-11-14T13:14:47;20.45;;;14.48;;
36257;SDS011;22294;52.044;4.582;2022-11-14T13:17:32;20.88;;;13.85;;
36257;SDS011;22294;52.044;4.582;2022-11-14T13:23:04;24.48;;;15.70;;
36257;SDS011;22294;52.044;4.582;2022-11-14T13:25:29;25.42;;;15.63;;
36257;SDS011;22294;52.044;4.582;2022-11-14T13:28:03;18.98;;;14.20;;
36257;SDS011;22294;52.044;4.582;2022-11-14T13:44:44;17.80;;;12.68;;
36257;SDS011;22294;52.044;4.582;2022-11-14T13:47:23;17.00;;;13.63;;
36257;SDS011;22294;52.044;4.582;2022-11-14T13:50:05;15.93;;;12.60;;
36257;SDS011;22294;52.044;4.582;2022-11-14T13:52:33;17.75;;;13.50;;
36257;SDS011;22294;52.044;4.582;2022-11-14T13:55:03;17.98;;;13.00;;
36257;SDS011;22294;52.044;4.582;2022-11-14T13:57:53;17.00;;;13.18;;
36257;SDS011;22294;52.044;4.582;2022-11-14T14:00:21;15.48;;;12.30;;
36257;SDS011;22294;52.044;4.582;2022-11-14T14:08:33;19.98;;;13.45;;
36257;SDS011;22294;52.044;4.582;2022-11-14T14:17:48;17.90;;;13.38;;
36257;SDS011;22294;52.044;4.582;2022-11-14T14:25:56;18.10;;;14.18;;
36257;SDS011;22294;52.044;4.582;2022-11-14T14:31:15;20.05;;;12.95;;
36257;SDS011;22294;52.044;4.582;2022-11-14T14:33:44;17.15;;;12.82;;
36257;SDS011;22294;52.044;4.582;2022-11-14T14:36:18;16.58;;;13.02;;
36257;SDS011;22294;52.044;4.582;2022-11-14T14:38:48;18.70;;;12.95;;
36257;SDS011;22294;52.044;4.582;2022-11-14T14:41:15;18.90;;;13.65;;
36257;SDS011;22294;52.044;4.582;2022-11-14T14:43:45;20.25;;;13.35;;
36257;SDS011;22294;52.044;4.582;2022-11-14T14:46:15;19.38;;;13.77;;
36257;SDS011;22294;52.044;4.582;2022-11-14T14:48:53;20.08;;;13.57;;
36257;SDS011;22294;52.044;4.582;2022-11-14T14:51:28;20.33;;;14.38;;
36257;SDS011;22294;52.044;4.582;2022-11-14T14:53:55;21.42;;;13.60;;
36257;SDS011;22294;52.044;4.582;2022-11-14T14:56:22;18.13;;;14.48;;
36257;SDS011;22294;52.044;4.582;2022-11-14T14:58:51;20.27;;;14.63;;
36257;SDS011;22294;52.044;4.582;2022-11-14T15:01:17;18.55;;;13.40;;
36257;SDS011;22294;52.044;4.582;2022-11-14T15:03:48;24.02;;;15.63;;
36257;SDS011;22294;52.044;4.582;2022-11-14T15:06:21;19.08;;;13.90;;
36257;SDS011;22294;52.044;4.582;2022-11-14T15:08:54;21.38;;;15.40;;
36257;SDS011;22294;52.044;4.582;2022-11-14T15:11:21;17.77;;;13.48;;
36257;SDS011;22294;52.044;4.582;2022-11-14T15:13:49;20.27;;;15.70;;
36257;SDS011;22294;52.044;4.582;2022-11-14T15:16:17;21.73;;;15.40;;
36257;SDS011;22294;52.044;4.582;2022-11-14T15:18:44;25.70;;;15.73;;
36257;SDS011;22294;52.044;4.582;2022-11-14T15:21:16;20.58;;;15.82;;
36257;SDS011;22294;52.044;4.582;2022-11-14T15:26:39;21.85;;;15.23;;
36257;SDS011;22294;52.044;4.582;2022-11-14T15:31:56;23.88;;;17.58;;
36257;SDS011;22294;52.044;4.582;2022-11-14T15:37:40;43.28;;;28.17;;
36257;SDS011;22294;52.044;4.582;2022-11-14T15:40:23;46.20;;;30.63;;
36257;SDS011;22294;52.044;4.582;2022-11-14T15:42:48;54.40;;;32.17;;
36257;SDS011;22294;52.044;4.582;2022-11-14T15:45:24;52.08;;;33.90;;
36257;SDS011;22294;52.044;4.582;2022-11-14T15:47:56;47.78;;;31.90;;
36257;SDS011;22294;52.044;4.582;2022-11-14T15:50:27;51.78;;;33.33;;
36257;SDS011;22294;52.044;4.582;2022-11-14T15:53:04;44.42;;;31.65;;
36257;SDS011;22294;52.044;4.582;2022-11-14T15:55:31;57.95;;;35.45;;
36257;SDS011;22294;52.044;4.582;2022-11-14T15:57:56;54.63;;;34.05;;
36257;SDS011;22294;52.044;4.582;2022-11-14T16:00:22;53.75;;;34.78;;
36257;SDS011;22294;52.044;4.582;2022-11-14T16:02:51;54.15;;;34.50;;
36257;SDS011;22294;52.044;4.582;2022-11-14T16:05:27;54.53;;;35.35;;
36257;SDS011;22294;52.044;4.582;2022-11-14T16:07:53;59.22;;;37.08;;
36257;SDS011;22294;52.044;4.582;2022-11-14T16:10:22;53.85;;;35.72;;
36257;SDS011;22294;52.044;4.582;2022-11-14T16:12:49;59.05;;;38.25;;
36257;SDS011;22294;52.044;4.582;2022-11-14T16:15:15;57.33;;;36.00;;
36257;SDS011;22294;52.044;4.582;2022-11-14T16:17:42;56.17;;;36.00;;
36257;SDS011;22294;52.044;4.582;2022-11-14T16:20:31;58.08;;;34.90;;
36257;SDS011;22294;52.044;4.582;2022-11-14T16:22:58;53.95;;;34.10;;
36257;SDS011;22294;52.044;4.582;2022-11-14T16:25:28;50.45;;;32.72;;
36257;SDS011;22294;52.044;4.582;2022-11-14T16:27:54;54.95;;;33.50;;
36257;SDS011;22294;52.044;4.582;2022-11-14T16:30:21;53.30;;;33.15;;
36257;SDS011;22294;52.044;4.582;2022-11-14T16:32:48;52.65;;;33.30;;
36257;SDS011;22294;52.044;4.582;2022-11-14T16:35:16;50.50;;;31.40;;